createdAt,value
2022-11-19T00:02:00.357Z,96081.63
2022-11-19T00:06:07.583Z,96057.47
2022-11-19T00:10:11.261Z,96067.75
2022-11-19T00:14:12.743Z,96077.28
2022-11-19T00:18:13.251Z,96067.44
2022-11-19T00:22:13.790Z,96074.31
2022-11-19T00:26:18.054Z,96072.69
2022-11-19T00:30:40.951Z,96063.00
2022-11-19T00:34:39.413Z,96071.13
2022-11-19T00:38:40.301Z,96072.66
2022-11-19T00:43:03.077Z,96067.53
2022-11-19T00:47:03.327Z,96078.28
2022-11-19T00:51:04.393Z,96085.34
2022-11-19T00:55:04.737Z,96088.06
2022-11-19T00:59:08.022Z,96090.50
2022-11-19T01:03:08.547Z,96079.09
2022-11-19T01:07:08.981Z,96093.94
2022-11-19T01:11:11.616Z,96084.78
2022-11-19T01:15:14.586Z,96100.00
2022-11-19T01:19:17.163Z,96099.09
2022-11-19T01:23:17.733Z,96094.13
2022-11-19T01:27:17.995Z,96101.66
2022-11-19T01:31:24.485Z,96092.94
2022-11-19T01:35:24.613Z,96087.34
2022-11-19T01:39:24.647Z,96102.44
2022-11-19T01:43:43.775Z,96108.47
2022-11-19T01:47:46.633Z,96117.91
2022-11-19T01:51:54.313Z,96110.13
2022-11-19T01:55:55.403Z,96097.03
2022-11-19T01:59:55.987Z,96119.03
2022-11-19T02:04:00.792Z,96119.53
2022-11-19T02:08:01.993Z,96112.75
2022-11-19T02:12:25.183Z,96118.47
2022-11-19T02:16:34.407Z,96117.91
2022-11-19T02:21:08.952Z,96118.47
2022-11-19T02:25:26.085Z,96120.09
2022-11-19T02:30:07.780Z,96135.78
2022-11-19T02:34:17.396Z,96138.13
2022-11-19T02:38:30.768Z,96142.69
2022-11-19T02:42:38.071Z,96143.03
2022-11-19T02:46:41.853Z,96158.69
2022-11-19T02:50:49.214Z,96167.63
2022-11-19T02:54:49.292Z,96157.53
2022-11-19T02:59:07.839Z,96169.16
2022-11-19T03:03:30.637Z,96178.84
2022-11-19T03:07:32.750Z,96176.78
2022-11-19T03:11:35.766Z,96161.03
2022-11-19T03:16:02.057Z,96164.16
2022-11-19T03:20:18.780Z,96179.03
2022-11-19T03:24:26.146Z,96187.53
2022-11-19T03:28:32.915Z,96197.72
2022-11-19T03:32:39.744Z,96201.53
2022-11-19T03:36:46.485Z,96197.09
2022-11-19T03:40:47.705Z,96203.41
2022-11-19T03:44:52.949Z,96212.44
2022-11-19T03:48:57.569Z,96202.69
2022-11-19T03:53:04.594Z,96221.81
2022-11-19T03:57:08.385Z,96174.41
2022-11-19T04:01:08.909Z,96209.50
2022-11-19T04:05:10.018Z,96216.16
2022-11-19T04:09:12.723Z,96220.72
2022-11-19T04:13:12.876Z,96208.34
2022-11-19T04:17:13.822Z,96214.50
2022-11-19T04:21:13.971Z,96220.50
2022-11-19T04:25:16.829Z,96225.38
2022-11-19T04:29:17.321Z,96229.22
2022-11-19T04:33:17.775Z,96241.09
2022-11-19T04:37:17.921Z,96237.78
2022-11-19T04:41:20.620Z,96241.28
2022-11-19T04:45:20.763Z,96247.25
2022-11-19T04:49:21.092Z,96246.06
2022-11-19T04:53:21.626Z,96246.09
2022-11-19T04:57:24.441Z,96248.31
2022-11-19T05:01:24.828Z,96240.03
2022-11-19T05:05:25.021Z,96240.00
2022-11-19T05:09:25.368Z,96242.06
2022-11-19T05:13:28.386Z,96251.16
2022-11-19T05:17:28.549Z,96252.50
2022-11-19T05:21:28.907Z,96255.19
2022-11-19T05:25:29.161Z,96247.59
2022-11-19T05:29:31.958Z,96248.34
2022-11-19T05:33:34.318Z,96245.69
2022-11-19T05:37:34.867Z,96244.84
2022-11-19T05:41:34.973Z,96249.31
2022-11-19T05:45:37.874Z,96256.88
2022-11-19T05:49:38.043Z,96252.41
2022-11-19T05:53:38.144Z,96263.94
2022-11-19T05:57:38.226Z,96265.91
2022-11-19T06:01:40.981Z,96266.75
2022-11-19T06:05:41.142Z,96279.91
2022-11-19T06:09:41.306Z,96284.28
2022-11-19T06:13:41.335Z,96290.16
2022-11-19T06:17:44.372Z,96281.97
2022-11-19T06:21:44.484Z,96285.41
2022-11-19T06:25:44.920Z,96288.69
2022-11-19T06:29:45.031Z,96289.94
2022-11-19T06:33:47.914Z,96282.25
2022-11-19T06:37:48.024Z,96271.13
2022-11-19T06:41:48.814Z,96287.31
2022-11-19T06:45:49.083Z,96299.56
2022-11-19T06:49:51.733Z,96299.81
2022-11-19T06:53:51.960Z,96308.13
2022-11-19T06:57:52.219Z,96293.88
2022-11-19T07:01:52.381Z,96307.97
2022-11-19T07:06:01.891Z,96309.28
2022-11-19T07:10:01.931Z,96321.50
2022-11-19T07:14:03.746Z,96319.69
2022-11-19T07:18:05.308Z,96318.31
2022-11-19T07:22:08.112Z,96298.19
2022-11-19T07:26:08.631Z,96336.34
2022-11-19T07:30:11.689Z,96359.88
2022-11-19T07:34:13.685Z,96377.66
2022-11-19T07:38:16.378Z,96369.84
2022-11-19T07:42:37.472Z,96357.53
2022-11-19T07:46:41.747Z,96365.84
2022-11-19T07:50:41.881Z,96368.34
2022-11-19T07:54:44.639Z,96370.13
2022-11-19T07:58:45.151Z,96377.81
2022-11-19T08:02:45.328Z,96364.91
2022-11-19T08:06:45.497Z,96367.50
2022-11-19T08:10:48.204Z,96361.50
2022-11-19T08:14:48.287Z,96363.03
2022-11-19T08:18:48.398Z,96365.59
2022-11-19T08:22:48.436Z,96370.41
2022-11-19T08:26:51.940Z,96374.34
2022-11-19T08:30:52.288Z,96361.72
2022-11-19T08:34:52.529Z,96372.66
2022-11-19T08:38:52.711Z,96383.88
2022-11-19T08:43:04.324Z,96371.44
2022-11-19T08:47:04.494Z,96388.69
2022-11-19T08:51:07.315Z,96391.00
2022-11-19T08:55:09.145Z,96390.34
2022-11-19T08:59:12.235Z,96373.56
2022-11-19T09:03:12.795Z,96389.72
2022-11-19T09:07:13.137Z,96384.03
2022-11-19T09:11:16.239Z,96392.16
2022-11-19T09:15:19.152Z,96398.16
2022-11-19T09:19:19.241Z,96388.56
2022-11-19T09:23:19.294Z,96405.66
2022-11-19T09:27:19.380Z,96401.59
2022-11-19T09:31:23.590Z,96408.50
2022-11-19T09:35:23.778Z,96405.38
2022-11-19T09:39:24.155Z,96407.06
2022-11-19T09:43:44.977Z,96402.41
2022-11-19T09:48:13.961Z,96409.91
2022-11-19T09:52:20.135Z,96409.13
2022-11-19T09:56:28.593Z,96401.84
2022-11-19T10:00:32.431Z,96393.06
2022-11-19T10:04:36.225Z,96410.69
2022-11-19T10:08:58.949Z,96412.47
2022-11-19T10:13:20.700Z,96390.88
2022-11-19T10:17:36.680Z,96416.13
2022-11-19T10:21:52.954Z,96411.41
2022-11-19T10:25:59.137Z,96413.19
2022-11-19T10:30:09.095Z,96413.56
2022-11-19T10:34:19.563Z,96407.69
2022-11-19T10:38:30.342Z,96408.50
2022-11-19T10:42:38.611Z,96389.41
2022-11-19T10:46:39.298Z,96385.88
2022-11-19T10:50:39.817Z,96383.78
2022-11-19T10:54:44.563Z,96398.00
2022-11-19T10:58:52.731Z,96382.53
2022-11-19T11:03:01.917Z,96380.47
2022-11-19T11:07:04.976Z,96370.56
2022-11-19T11:11:08.012Z,96357.94
2022-11-19T11:15:15.806Z,96370.91
2022-11-19T11:19:20.464Z,96371.56
2022-11-19T11:23:25.441Z,96354.38
2022-11-19T11:27:34.146Z,96372.97
2022-11-19T11:31:38.760Z,96365.84
2022-11-19T11:35:40.569Z,96376.63
2022-11-19T11:39:44.511Z,96358.63
2022-11-19T11:44:04.209Z,96374.75
2022-11-19T11:48:10.849Z,96376.69
2022-11-19T11:52:22.593Z,96372.53
2022-11-19T11:56:24.502Z,96371.34
2022-11-19T12:00:37.935Z,96377.88
2022-11-19T12:04:38.645Z,96372.09
2022-11-19T12:08:51.761Z,96371.63
2022-11-19T12:13:26.136Z,96369.34
2022-11-19T12:17:51.042Z,96348.22
2022-11-19T12:22:06.179Z,96365.66
2022-11-19T12:26:19.826Z,96361.50
2022-11-19T12:30:24.123Z,96368.72
2022-11-19T12:35:12.964Z,96351.31
2022-11-19T12:39:35.591Z,96315.81
2022-11-19T12:43:56.519Z,96331.81
2022-11-19T12:48:34.938Z,96353.00
2022-11-19T12:53:10.240Z,96358.72
2022-11-19T12:57:27.946Z,96360.16
2022-11-19T13:01:34.854Z,96327.97
2022-11-19T13:05:47.736Z,96358.53
2022-11-19T13:09:55.674Z,96365.44
2022-11-19T13:14:02.978Z,96339.59
2022-11-19T13:18:11.168Z,96348.09
2022-11-19T13:22:20.488Z,96328.31
2022-11-19T13:26:28.991Z,96346.09
2022-11-19T13:30:32.199Z,96358.16
2022-11-19T13:34:42.073Z,96335.25
2022-11-19T13:38:49.730Z,96361.63
2022-11-19T13:43:30.644Z,96337.56
2022-11-19T13:47:32.276Z,96349.13
2022-11-19T13:51:39.742Z,96338.03
2022-11-19T13:55:44.238Z,96346.00
2022-11-19T13:59:50.294Z,96341.50
2022-11-19T14:04:13.373Z,96337.81
2022-11-19T14:08:35.260Z,96338.31
2022-11-19T14:13:09.501Z,96348.59
2022-11-19T14:17:38.015Z,96352.63
2022-11-19T14:22:11.718Z,96344.06
2022-11-19T14:26:24.049Z,96346.06
2022-11-19T14:31:08.291Z,96350.63
2022-11-19T14:35:32.456Z,96356.00
2022-11-19T14:39:41.405Z,96360.03
2022-11-19T14:44:11.662Z,96342.34
2022-11-19T14:48:11.819Z,96350.50
2022-11-19T14:52:28.477Z,96356.28
2022-11-19T14:56:28.984Z,96354.97
2022-11-19T15:00:35.336Z,96346.50
2022-11-19T15:04:41.159Z,96357.25
2022-11-19T15:08:56.916Z,96364.84
2022-11-19T15:13:36.597Z,96356.31
2022-11-19T15:17:38.329Z,96367.38
2022-11-19T15:22:24.991Z,96334.03
2022-11-19T15:26:39.486Z,96357.25
2022-11-19T15:31:14.525Z,96365.03
2022-11-19T15:35:40.295Z,96356.00
2022-11-19T15:39:48.074Z,96342.78
2022-11-19T15:43:56.645Z,96358.88
2022-11-19T15:48:13.164Z,96360.56
2022-11-19T15:52:26.108Z,96339.78
2022-11-19T15:56:26.815Z,96358.59
2022-11-19T16:00:30.650Z,96361.19
2022-11-19T16:04:39.038Z,96365.75
2022-11-19T16:08:40.583Z,96340.84
2022-11-19T16:12:53.131Z,96366.44
2022-11-19T16:17:09.764Z,96368.34
2022-11-19T16:21:09.931Z,96369.38
2022-11-19T16:25:16.596Z,96382.81
2022-11-19T16:29:22.529Z,96344.81
2022-11-19T16:33:28.725Z,96367.53
2022-11-19T16:37:29.417Z,96372.66
2022-11-19T16:41:42.699Z,96377.97
2022-11-19T16:45:48.355Z,96393.69
2022-11-19T16:50:04.033Z,96393.22
2022-11-19T16:54:06.025Z,96396.31
2022-11-19T16:58:17.362Z,96406.13
2022-11-19T17:02:20.887Z,96403.19
2022-11-19T17:06:27.974Z,96408.31
2022-11-19T17:10:34.729Z,96387.66
2022-11-19T17:14:52.591Z,96416.50
2022-11-19T17:18:54.152Z,96426.91
2022-11-19T17:22:57.226Z,96430.69
2022-11-19T17:26:57.396Z,96432.59
2022-11-19T17:30:58.914Z,96429.84
2022-11-19T17:34:59.060Z,96435.63
2022-11-19T17:39:01.926Z,96428.16
2022-11-19T17:43:15.745Z,96420.47
2022-11-19T17:47:23.522Z,96423.69
2022-11-19T17:51:27.891Z,96407.31
2022-11-19T17:55:30.678Z,96422.53
2022-11-19T17:59:30.782Z,96418.41
2022-11-19T18:03:30.971Z,96385.03
2022-11-19T18:07:32.593Z,96406.69
2022-11-19T18:11:35.491Z,96398.94
2022-11-19T18:15:35.573Z,96410.28
2022-11-19T18:19:35.741Z,96429.97
2022-11-19T18:23:35.897Z,96444.84
2022-11-19T18:27:38.856Z,96457.34
2022-11-19T18:31:45.771Z,96428.16
2022-11-19T18:35:46.176Z,96445.66
2022-11-19T18:39:46.598Z,96444.44
2022-11-19T18:44:02.434Z,96426.47
2022-11-19T18:48:02.659Z,96444.03
2022-11-19T18:52:03.234Z,96435.03
2022-11-19T18:56:03.332Z,96460.41
2022-11-19T19:00:07.589Z,96465.09
2022-11-19T19:04:14.363Z,96461.88
2022-11-19T19:08:16.028Z,96459.25
2022-11-19T19:12:22.328Z,96418.47
2022-11-19T19:16:26.206Z,96452.50
2022-11-19T19:20:26.953Z,96458.50
2022-11-19T19:24:27.288Z,96443.59
2022-11-19T19:28:27.794Z,96449.50
2022-11-19T19:32:30.531Z,96454.91
2022-11-19T19:36:31.021Z,96463.78
2022-11-19T19:40:31.342Z,96449.69
2022-11-19T19:44:31.783Z,96444.84
2022-11-19T19:48:36.149Z,96467.75
2022-11-19T19:52:36.332Z,96465.34
2022-11-19T19:56:37.160Z,96432.19
2022-11-19T20:00:37.409Z,96445.09
2022-11-19T20:04:40.241Z,96452.16
2022-11-19T20:08:41.634Z,96450.56
2022-11-19T20:12:54.385Z,96449.09
2022-11-19T20:16:56.214Z,96455.38
2022-11-19T20:21:02.054Z,96461.78
2022-11-19T20:25:02.243Z,96470.59
2022-11-19T20:29:04.721Z,96453.09
2022-11-19T20:33:05.185Z,96467.25
2022-11-19T20:37:08.001Z,96470.06
2022-11-19T20:41:31.506Z,96464.13
2022-11-19T20:45:31.638Z,96450.13
2022-11-19T20:49:34.971Z,96429.44
2022-11-19T20:53:39.282Z,96421.78
2022-11-19T20:57:39.880Z,96425.00
2022-11-19T21:01:41.388Z,96456.38
2022-11-19T21:05:41.818Z,96445.34
2022-11-19T21:09:44.824Z,96405.41
2022-11-19T21:13:45.827Z,96442.63
2022-11-19T21:17:46.711Z,96410.25
2022-11-19T21:21:47.293Z,96458.28
2022-11-19T21:25:52.885Z,96462.63
2022-11-19T21:29:53.083Z,96462.59
2022-11-19T21:33:53.486Z,96452.06
2022-11-19T21:37:53.753Z,96447.94
2022-11-19T21:41:57.059Z,96451.41
2022-11-19T21:45:58.130Z,96428.72
2022-11-19T21:50:00.828Z,96456.78
2022-11-19T21:54:02.139Z,96447.88
2022-11-19T21:58:05.540Z,96439.88
2022-11-19T22:02:05.691Z,96425.38
2022-11-19T22:06:09.585Z,96422.69
2022-11-19T22:10:10.987Z,96437.34
2022-11-19T22:14:13.767Z,96445.38
2022-11-19T22:18:13.913Z,96434.81
2022-11-19T22:22:14.149Z,96451.75
2022-11-19T22:26:16.086Z,96430.13
2022-11-19T22:30:19.359Z,96439.53
2022-11-19T22:34:19.544Z,96435.72
2022-11-19T22:38:19.760Z,96438.19
2022-11-19T22:42:19.925Z,96430.47
2022-11-19T22:46:23.629Z,96432.84
2022-11-19T22:50:23.779Z,96440.63
2022-11-19T22:54:23.918Z,96415.19
2022-11-19T22:58:24.050Z,96421.03
2022-11-19T23:02:26.884Z,96443.53
2022-11-19T23:06:27.865Z,96435.22
2022-11-19T23:10:28.125Z,96433.47
2022-11-19T23:14:30.025Z,96443.94
2022-11-19T23:18:35.012Z,96432.69
2022-11-19T23:22:35.084Z,96437.22
2022-11-19T23:26:36.582Z,96438.78
2022-11-19T23:30:37.081Z,96419.94
2022-11-19T23:34:39.767Z,96440.44
2022-11-19T23:38:41.159Z,96443.97
2022-11-19T23:42:41.362Z,96436.31
2022-11-19T23:46:42.429Z,96413.97
2022-11-19T23:50:45.099Z,96423.91
2022-11-19T23:54:45.184Z,96389.56
2022-11-19T23:58:45.690Z,96417.59
